createdAt,value
2023-02-12T00:01:10.154Z,67.05
2023-02-12T00:03:39.834Z,66.51
2023-02-12T00:06:08.256Z,67.15
2023-02-12T00:08:36.182Z,66.67
2023-02-12T00:11:09.558Z,66.45
2023-02-12T00:13:38.337Z,67.31
2023-02-12T00:16:08.196Z,67.22
2023-02-12T00:18:35.997Z,67.05
2023-02-12T00:21:05.823Z,66.58
2023-02-12T00:23:33.824Z,67.10
2023-02-12T00:26:01.693Z,67.18
2023-02-12T00:28:29.462Z,66.80
2023-02-12T00:30:57.353Z,66.79
2023-02-12T00:33:25.190Z,67.43
2023-02-12T00:35:57.394Z,67.01
2023-02-12T00:38:26.517Z,67.14
2023-02-12T00:40:54.265Z,67.20
2023-02-12T00:43:22.112Z,67.30
2023-02-12T00:45:50.066Z,66.68
2023-02-12T00:48:17.798Z,67.52
2023-02-12T00:50:47.074Z,67.02
2023-02-12T00:53:14.889Z,67.20
2023-02-12T00:55:44.471Z,66.88
2023-02-12T00:58:12.847Z,67.47
2023-02-12T01:00:40.639Z,66.91
2023-02-12T01:03:08.344Z,66.84
2023-02-12T01:05:36.935Z,66.79
2023-02-12T01:08:05.693Z,66.93
2023-02-12T01:10:33.533Z,67.17
2023-02-12T01:13:02.592Z,66.79
2023-02-12T01:15:30.397Z,66.88
2023-02-12T01:17:58.163Z,66.86
2023-02-12T01:20:27.074Z,66.84
2023-02-12T01:22:54.874Z,66.68
2023-02-12T01:25:22.685Z,67.51
2023-02-12T01:27:50.357Z,66.90
2023-02-12T01:30:22.160Z,67.06
2023-02-12T01:32:49.936Z,67.06
2023-02-12T01:35:17.792Z,67.09
2023-02-12T01:37:45.513Z,67.30
2023-02-12T01:40:16.732Z,67.11
2023-02-12T01:42:44.458Z,66.70
2023-02-12T01:45:46.499Z,67.07
2023-02-12T01:48:16.512Z,67.02
2023-02-12T01:50:47.011Z,66.90
2023-02-12T01:53:20.089Z,67.02
2023-02-12T01:55:54.400Z,66.77
2023-02-12T01:58:23.575Z,66.66
2023-02-12T02:00:53.063Z,66.65
2023-02-12T02:03:20.930Z,67.47
2023-02-12T02:05:55.835Z,67.13
2023-02-12T02:08:24.549Z,67.00
2023-02-12T02:10:52.538Z,66.85
2023-02-12T02:13:38.189Z,66.83
2023-02-12T02:16:16.872Z,66.74
2023-02-12T02:18:54.326Z,66.77
2023-02-12T02:21:53.478Z,67.27
2023-02-12T02:25:03.378Z,67.33
2023-02-12T02:27:43.174Z,67.04
2023-02-12T02:30:45.320Z,66.89
2023-02-12T02:33:37.271Z,67.62
2023-02-12T02:36:15.688Z,67.35
2023-02-12T02:38:47.998Z,67.29
2023-02-12T02:41:22.597Z,67.51
2023-02-12T02:43:52.139Z,67.25
2023-02-12T02:46:28.943Z,67.11
2023-02-12T02:48:59.409Z,67.51
2023-02-12T02:51:31.703Z,67.15
2023-02-12T02:54:06.431Z,66.65
2023-02-12T02:56:37.983Z,67.09
2023-02-12T02:59:11.209Z,67.50
2023-02-12T03:01:45.624Z,67.02
2023-02-12T03:04:20.635Z,66.68
2023-02-12T03:06:55.640Z,67.45
2023-02-12T03:09:27.149Z,66.63
2023-02-12T03:11:58.971Z,67.39
2023-02-12T03:14:30.731Z,66.73
2023-02-12T03:17:04.100Z,67.53
2023-02-12T03:19:36.336Z,66.76
2023-02-12T03:22:08.427Z,67.13
2023-02-12T03:24:41.265Z,67.09
2023-02-12T03:27:14.153Z,66.90
2023-02-12T03:29:41.857Z,67.34
2023-02-12T03:32:25.041Z,67.19
2023-02-12T03:35:00.048Z,67.38
2023-02-12T03:37:32.525Z,66.98
2023-02-12T03:40:09.491Z,66.56
2023-02-12T03:42:45.967Z,67.02
2023-02-12T03:45:24.107Z,66.48
2023-02-12T03:48:03.858Z,67.06
2023-02-12T03:50:38.738Z,67.11
2023-02-12T03:53:07.618Z,66.80
2023-02-12T03:55:40.358Z,66.64
2023-02-12T03:58:12.490Z,67.39
2023-02-12T04:00:41.098Z,67.38
2023-02-12T04:03:10.860Z,66.76
2023-02-12T04:05:38.587Z,66.63
2023-02-12T04:08:09.904Z,67.10
2023-02-12T04:10:47.802Z,66.68
2023-02-12T04:13:22.505Z,67.04
2023-02-12T04:16:08.313Z,67.30
2023-02-12T04:18:42.478Z,66.97
2023-02-12T04:21:19.872Z,66.53
2023-02-12T04:24:04.470Z,66.87
2023-02-12T04:26:38.539Z,66.47
2023-02-12T04:29:20.499Z,67.37
2023-02-12T04:31:52.530Z,66.87
2023-02-12T04:34:32.865Z,67.54
2023-02-12T04:37:06.669Z,66.80
2023-02-12T04:39:38.856Z,67.23
2023-02-12T04:42:06.818Z,67.31
2023-02-12T04:44:38.410Z,66.98
2023-02-12T04:47:06.198Z,66.79
2023-02-12T04:49:35.302Z,67.00
2023-02-12T04:52:03.070Z,66.77
2023-02-12T04:54:30.785Z,67.04
2023-02-12T04:56:58.480Z,67.62
2023-02-12T04:59:26.208Z,67.40
2023-02-12T05:01:54.362Z,66.92
2023-02-12T05:04:22.171Z,66.77
2023-02-12T05:06:51.207Z,66.83
2023-02-12T05:09:20.942Z,67.24
2023-02-12T05:11:48.639Z,66.53
2023-02-12T05:14:16.451Z,66.96
2023-02-12T05:16:44.278Z,67.35
2023-02-12T05:19:12.295Z,67.38
2023-02-12T05:21:40.043Z,66.74
2023-02-12T05:24:09.541Z,66.93
2023-02-12T05:26:37.828Z,67.20
2023-02-12T05:29:05.609Z,66.40
2023-02-12T05:31:33.490Z,66.83
2023-02-12T05:34:01.251Z,66.69
2023-02-12T05:36:29.295Z,66.87
2023-02-12T05:38:59.773Z,66.83
2023-02-12T05:41:29.317Z,67.48
2023-02-12T05:43:57.051Z,66.30
2023-02-12T05:46:24.806Z,67.41
2023-02-12T05:48:52.519Z,66.87
2023-02-12T05:51:22.953Z,66.67
2023-02-12T05:53:52.537Z,66.76
2023-02-12T05:56:22.287Z,66.77
2023-02-12T05:58:55.206Z,67.00
2023-02-12T06:01:26.670Z,67.21
2023-02-12T06:03:54.789Z,67.51
2023-02-12T06:06:22.719Z,66.87
2023-02-12T06:08:51.070Z,66.75
2023-02-12T06:11:19.457Z,67.03
2023-02-12T06:13:47.342Z,67.10
2023-02-12T06:16:21.333Z,66.76
2023-02-12T06:18:49.912Z,66.85
2023-02-12T06:21:18.797Z,66.84
2023-02-12T06:23:46.810Z,66.66
2023-02-12T06:26:14.513Z,66.83
2023-02-12T06:28:42.249Z,66.68
2023-02-12T06:31:20.582Z,67.38
2023-02-12T06:33:49.044Z,67.33
2023-02-12T06:36:17.657Z,67.31
2023-02-12T06:38:45.659Z,66.96
2023-02-12T06:41:13.667Z,66.93
2023-02-12T06:43:41.607Z,67.20
2023-02-12T06:46:10.021Z,66.72
2023-02-12T06:48:39.157Z,67.06
2023-02-12T06:51:08.199Z,67.18
2023-02-12T06:53:36.536Z,66.80
2023-02-12T06:56:06.200Z,67.24
2023-02-12T06:58:34.154Z,67.27
2023-02-12T07:01:12.426Z,67.47
2023-02-12T07:03:42.152Z,67.02
2023-02-12T07:06:11.185Z,67.42
2023-02-12T07:08:38.962Z,67.20
2023-02-12T07:11:07.166Z,67.28
2023-02-12T07:13:35.650Z,66.74
2023-02-12T07:16:07.609Z,67.15
2023-02-12T07:18:35.929Z,66.77
2023-02-12T07:21:06.824Z,67.54
2023-02-12T07:23:35.695Z,67.36
2023-02-12T07:26:05.587Z,67.37
2023-02-12T07:28:34.477Z,67.54
2023-02-12T07:31:07.684Z,67.32
2023-02-12T07:33:36.023Z,67.27
2023-02-12T07:36:06.428Z,66.74
2023-02-12T07:38:36.157Z,66.21
2023-02-12T07:41:13.174Z,65.52
2023-02-12T07:43:41.244Z,64.66
2023-02-12T07:46:11.382Z,64.23
2023-02-12T07:48:39.323Z,63.71
2023-02-12T07:51:11.109Z,63.45
2023-02-12T07:53:38.993Z,62.75
2023-02-12T07:56:08.870Z,62.40
2023-02-12T07:58:36.600Z,62.08
2023-02-12T08:01:16.500Z,62.40
2023-02-12T08:03:44.314Z,62.80
2023-02-12T08:06:15.481Z,63.08
2023-02-12T08:08:43.547Z,63.34
2023-02-12T08:11:13.748Z,64.38
2023-02-12T08:13:42.280Z,64.44
2023-02-12T08:16:12.406Z,64.20
2023-02-12T08:18:40.363Z,64.84
2023-02-12T08:21:09.759Z,64.78
2023-02-12T08:23:39.412Z,65.15
2023-02-12T08:26:09.807Z,65.08
2023-02-12T08:28:38.779Z,65.04
2023-02-12T08:31:10.486Z,65.62
2023-02-12T08:33:38.383Z,65.47
2023-02-12T08:36:09.547Z,66.24
2023-02-12T08:38:40.061Z,65.76
2023-02-12T08:41:09.958Z,65.59
2023-02-12T08:43:38.070Z,66.02
2023-02-12T08:46:07.902Z,66.24
2023-02-12T08:48:35.830Z,65.79
2023-02-12T08:51:08.855Z,66.32
2023-02-12T08:53:38.810Z,66.28
2023-02-12T08:56:07.518Z,66.07
2023-02-12T08:58:35.711Z,66.05
2023-02-12T09:01:04.176Z,66.58
2023-02-12T09:03:32.400Z,66.18
2023-02-12T09:06:03.027Z,66.78
2023-02-12T09:08:31.549Z,66.13
2023-02-12T09:11:00.867Z,66.39
2023-02-12T09:13:28.577Z,66.78
2023-02-12T09:15:56.632Z,66.53
2023-02-12T09:18:24.481Z,66.55
2023-02-12T09:20:52.220Z,66.00
2023-02-12T09:23:19.913Z,66.44
2023-02-12T09:25:48.016Z,66.65
2023-02-12T09:28:17.286Z,66.14
2023-02-12T09:30:45.068Z,65.84
2023-02-12T09:33:12.994Z,66.26
2023-02-12T09:35:40.970Z,65.68
2023-02-12T09:38:09.860Z,66.30
2023-02-12T09:40:44.953Z,66.21
2023-02-12T09:43:20.990Z,65.89
2023-02-12T09:45:57.198Z,65.53
2023-02-12T09:48:41.845Z,66.05
2023-02-12T09:51:11.065Z,66.39
2023-02-12T09:53:42.683Z,65.71
2023-02-12T09:56:14.586Z,66.38
2023-02-12T09:58:48.620Z,66.08
2023-02-12T10:01:19.118Z,65.94
2023-02-12T10:03:48.886Z,65.93
2023-02-12T10:06:20.102Z,65.99
2023-02-12T10:09:01.987Z,66.00
2023-02-12T10:11:41.639Z,66.09
2023-02-12T10:14:45.295Z,65.85
2023-02-12T10:17:22.539Z,65.40
2023-02-12T10:20:14.208Z,65.21
2023-02-12T10:22:56.920Z,65.87
2023-02-12T10:25:29.640Z,65.96
2023-02-12T10:28:02.075Z,65.58
2023-02-12T10:30:41.699Z,65.48
2023-02-12T10:33:17.444Z,64.78
2023-02-12T10:35:52.924Z,65.57
2023-02-12T10:38:25.251Z,65.33
2023-02-12T10:40:55.247Z,65.18
2023-02-12T10:43:22.999Z,64.90
2023-02-12T10:45:52.433Z,64.95
2023-02-12T10:48:23.282Z,64.92
2023-02-12T10:51:05.051Z,65.60
2023-02-12T10:53:34.806Z,65.42
2023-02-12T10:56:13.263Z,65.45
2023-02-12T10:58:42.707Z,64.89
2023-02-12T11:01:19.083Z,65.20
2023-02-12T11:03:46.882Z,65.63
2023-02-12T11:06:16.823Z,64.94
2023-02-12T11:08:45.191Z,64.81
2023-02-12T11:11:15.693Z,64.99
2023-02-12T11:13:48.921Z,65.12
2023-02-12T11:16:28.714Z,64.96
2023-02-12T11:19:00.323Z,64.99
2023-02-12T11:21:28.152Z,65.10
2023-02-12T11:23:55.955Z,64.61
2023-02-12T11:26:27.227Z,64.89
2023-02-12T11:28:57.207Z,64.74
2023-02-12T11:31:28.470Z,65.47
2023-02-12T11:34:15.705Z,65.06
2023-02-12T11:36:45.540Z,65.59
2023-02-12T11:39:24.409Z,65.73
2023-02-12T11:41:55.805Z,65.99
2023-02-12T11:44:27.677Z,65.14
2023-02-12T11:47:02.132Z,65.41
2023-02-12T11:49:33.224Z,65.68
2023-02-12T11:52:04.338Z,65.82
2023-02-12T11:54:38.238Z,65.56
2023-02-12T11:57:06.033Z,66.20
2023-02-12T11:59:37.257Z,65.79
2023-02-12T12:02:23.363Z,64.96
2023-02-12T12:04:55.513Z,64.74
2023-02-12T12:07:29.401Z,63.74
2023-02-12T12:10:01.318Z,62.88
2023-02-12T12:12:38.750Z,62.73
2023-02-12T12:15:34.364Z,61.98
2023-02-12T12:18:46.090Z,61.36
2023-02-12T12:21:21.423Z,60.79
2023-02-12T12:23:55.830Z,60.42
2023-02-12T12:26:26.018Z,60.27
2023-02-12T12:29:01.133Z,59.70
2023-02-12T12:31:33.136Z,59.58
2023-02-12T12:34:08.293Z,59.56
2023-02-12T12:36:58.410Z,59.04
2023-02-12T12:39:35.144Z,58.91
2023-02-12T12:42:28.503Z,58.79
2023-02-12T12:45:20.792Z,59.09
2023-02-12T12:48:02.990Z,58.96
2023-02-12T12:50:49.850Z,59.02
2023-02-12T12:53:29.503Z,58.73
2023-02-12T12:56:11.707Z,58.76
2023-02-12T12:59:01.913Z,58.41
2023-02-12T13:01:50.990Z,57.92
2023-02-12T13:05:01.585Z,58.42
2023-02-12T13:07:43.143Z,58.84
2023-02-12T13:10:20.832Z,59.29
2023-02-12T13:13:06.290Z,59.95
2023-02-12T13:15:39.435Z,60.63
2023-02-12T13:18:17.057Z,60.54
2023-02-12T13:20:52.381Z,60.39
2023-02-12T13:23:32.030Z,60.66
2023-02-12T13:26:08.309Z,60.76
2023-02-12T13:28:39.683Z,61.22
2023-02-12T13:31:32.039Z,61.57
2023-02-12T13:34:02.649Z,61.51
2023-02-12T13:36:30.374Z,61.42
2023-02-12T13:39:07.979Z,61.49
2023-02-12T13:41:36.552Z,61.63
2023-02-12T13:44:15.720Z,61.61
2023-02-12T13:46:52.571Z,61.29
2023-02-12T13:49:25.268Z,61.77
2023-02-12T13:51:58.538Z,61.47
2023-02-12T13:54:42.634Z,60.89
2023-02-12T13:57:15.263Z,61.47
2023-02-12T13:59:50.395Z,61.99
2023-02-12T14:02:42.653Z,62.06
2023-02-12T14:05:21.670Z,62.10
2023-02-12T14:07:52.207Z,62.05
2023-02-12T14:10:25.219Z,62.14
2023-02-12T14:12:54.509Z,62.39
2023-02-12T14:15:30.853Z,62.54
2023-02-12T14:18:07.094Z,62.46
2023-02-12T14:20:36.499Z,61.81
2023-02-12T14:23:28.986Z,61.64
2023-02-12T14:26:04.219Z,62.06
2023-02-12T14:28:47.816Z,61.97
2023-02-12T14:31:34.502Z,62.19
2023-02-12T14:34:49.394Z,62.48
2023-02-12T14:37:37.759Z,62.48
2023-02-12T14:40:44.387Z,62.67
2023-02-12T14:43:57.764Z,62.56
2023-02-12T14:46:50.032Z,62.81
2023-02-12T14:49:26.040Z,63.21
2023-02-12T14:51:59.310Z,63.21
2023-02-12T14:54:33.597Z,62.93
2023-02-12T14:57:05.921Z,63.07
2023-02-12T14:59:41.071Z,62.69
2023-02-12T15:02:15.105Z,62.83
2023-02-12T15:04:46.806Z,63.16
2023-02-12T15:07:21.658Z,63.32
2023-02-12T15:09:56.995Z,63.48
2023-02-12T15:12:32.676Z,63.59
2023-02-12T15:15:08.733Z,62.91
2023-02-12T15:17:41.880Z,63.30
2023-02-12T15:20:20.509Z,62.70
2023-02-12T15:22:48.209Z,63.41
2023-02-12T15:25:17.324Z,63.23
2023-02-12T15:27:47.498Z,62.60
2023-02-12T15:30:25.961Z,62.49
2023-02-12T15:32:56.244Z,62.45
2023-02-12T15:35:27.644Z,62.03
2023-02-12T15:37:56.525Z,61.73
2023-02-12T15:40:24.906Z,61.05
2023-02-12T15:42:56.261Z,60.82
2023-02-12T15:45:27.636Z,60.35
2023-02-12T15:48:06.102Z,60.07
2023-02-12T15:50:34.830Z,59.42
2023-02-12T15:53:04.113Z,59.22
2023-02-12T15:55:40.813Z,58.90
2023-02-12T15:58:19.655Z,58.43
2023-02-12T16:00:48.959Z,58.33
2023-02-12T16:03:24.798Z,58.21
2023-02-12T16:05:55.485Z,58.31
2023-02-12T16:08:24.668Z,58.76
2023-02-12T16:10:55.436Z,59.03
2023-02-12T16:13:31.323Z,59.79
2023-02-12T16:16:08.925Z,60.41
2023-02-12T16:18:36.727Z,60.79
2023-02-12T16:21:07.239Z,61.10
2023-02-12T16:23:36.337Z,61.32
2023-02-12T16:26:04.637Z,61.58
2023-02-12T16:28:33.333Z,61.87
2023-02-12T16:31:14.231Z,61.85
2023-02-12T16:33:48.727Z,61.67
2023-02-12T16:36:30.435Z,62.49
2023-02-12T16:38:59.584Z,62.40
2023-02-12T16:41:30.921Z,62.28
2023-02-12T16:44:29.399Z,62.65
2023-02-12T16:47:00.679Z,62.65
2023-02-12T16:49:28.581Z,62.68
2023-02-12T16:52:20.395Z,62.65
2023-02-12T16:54:48.070Z,63.07
2023-02-12T16:57:15.777Z,62.88
2023-02-12T16:59:45.236Z,63.07
2023-02-12T17:02:15.784Z,63.29
2023-02-12T17:04:43.995Z,63.09
2023-02-12T17:07:19.878Z,63.56
2023-02-12T17:09:47.640Z,63.72
2023-02-12T17:12:15.716Z,63.65
2023-02-12T17:14:43.433Z,63.46
2023-02-12T17:17:11.172Z,63.44
2023-02-12T17:19:40.402Z,63.61
2023-02-12T17:22:09.335Z,63.61
2023-02-12T17:24:37.058Z,63.84
2023-02-12T17:27:05.113Z,63.59
2023-02-12T17:29:32.862Z,63.64
2023-02-12T17:32:00.883Z,63.89
2023-02-12T17:34:34.090Z,63.47
2023-02-12T17:37:08.874Z,63.56
2023-02-12T17:39:36.603Z,63.97
2023-02-12T17:42:06.559Z,64.04
2023-02-12T17:44:34.387Z,63.81
2023-02-12T17:47:02.123Z,63.69
2023-02-12T17:49:31.612Z,63.72
2023-02-12T17:51:59.314Z,63.87
2023-02-12T17:54:28.717Z,63.64
2023-02-12T17:56:56.403Z,63.83
2023-02-12T17:59:24.169Z,63.82
2023-02-12T18:01:51.920Z,64.14
2023-02-12T18:04:20.155Z,63.74
2023-02-12T18:06:48.319Z,64.13
2023-02-12T18:09:17.013Z,63.70
2023-02-12T18:11:46.108Z,64.06
2023-02-12T18:14:13.795Z,63.64
2023-02-12T18:16:41.649Z,63.56
2023-02-12T18:19:09.328Z,63.29
2023-02-12T18:21:37.115Z,63.60
2023-02-12T18:24:05.473Z,63.88
2023-02-12T18:26:34.262Z,63.32
2023-02-12T18:29:03.380Z,63.87
2023-02-12T18:31:31.379Z,63.65
2023-02-12T18:33:59.185Z,63.71
2023-02-12T18:36:26.902Z,63.92
2023-02-12T18:38:54.768Z,63.80
2023-02-12T18:41:24.631Z,63.92
2023-02-12T18:43:52.969Z,63.17
2023-02-12T18:46:24.348Z,63.71
2023-02-12T18:48:52.912Z,63.64
2023-02-12T18:51:22.978Z,63.42
2023-02-12T18:53:56.274Z,63.96
2023-02-12T18:56:24.322Z,63.44
2023-02-12T18:58:57.123Z,63.33
2023-02-12T19:01:27.450Z,63.62
2023-02-12T19:03:56.400Z,63.66
2023-02-12T19:06:24.673Z,63.69
2023-02-12T19:08:55.477Z,64.07
2023-02-12T19:11:23.378Z,64.25
2023-02-12T19:13:51.104Z,64.05
2023-02-12T19:16:21.249Z,63.77
2023-02-12T19:18:51.650Z,63.91
2023-02-12T19:21:19.778Z,64.33
2023-02-12T19:23:47.565Z,64.32
2023-02-12T19:26:17.458Z,63.92
2023-02-12T19:28:45.304Z,64.07
2023-02-12T19:31:15.627Z,64.68
2023-02-12T19:33:44.752Z,64.19
2023-02-12T19:36:16.363Z,64.19
2023-02-12T19:38:46.718Z,64.54
2023-02-12T19:41:16.645Z,64.46
2023-02-12T19:43:44.914Z,64.64
2023-02-12T19:46:14.916Z,64.52
2023-02-12T19:48:42.757Z,64.40
2023-02-12T19:51:15.520Z,64.25
2023-02-12T19:53:43.591Z,64.19
2023-02-12T19:56:11.332Z,64.15
2023-02-12T19:58:39.496Z,64.61
2023-02-12T20:01:10.379Z,64.76
2023-02-12T20:03:38.502Z,64.42
2023-02-12T20:06:09.680Z,64.77
2023-02-12T20:08:39.524Z,64.32
2023-02-12T20:11:07.891Z,64.62
2023-02-12T20:13:36.090Z,64.19
2023-02-12T20:16:04.690Z,64.81
2023-02-12T20:18:32.535Z,64.72
2023-02-12T20:21:00.824Z,64.61
2023-02-12T20:23:28.622Z,64.53
2023-02-12T20:25:57.649Z,64.11
2023-02-12T20:28:25.571Z,64.32
2023-02-12T20:30:53.423Z,64.84
2023-02-12T20:33:21.177Z,64.28
2023-02-12T20:35:56.052Z,64.62
2023-02-12T20:38:23.844Z,64.56
2023-02-12T20:40:51.589Z,65.00
2023-02-12T20:43:20.708Z,65.16
2023-02-12T20:45:48.409Z,64.85
2023-02-12T20:48:16.159Z,64.63
2023-02-12T20:50:43.893Z,65.21
2023-02-12T20:53:11.566Z,64.55
2023-02-12T20:55:39.276Z,64.56
2023-02-12T20:58:07.000Z,64.87
2023-02-12T21:00:36.163Z,64.64
2023-02-12T21:03:04.646Z,65.07
2023-02-12T21:05:32.930Z,64.75
2023-02-12T21:08:00.639Z,65.09
2023-02-12T21:10:29.686Z,64.66
2023-02-12T21:12:57.518Z,65.20
2023-02-12T21:15:25.262Z,64.60
2023-02-12T21:17:54.385Z,64.74
2023-02-12T21:20:22.074Z,64.63
2023-02-12T21:22:49.796Z,65.03
2023-02-12T21:25:17.542Z,65.11
2023-02-12T21:27:45.355Z,64.94
2023-02-12T21:30:13.368Z,64.98
2023-02-12T21:32:41.180Z,64.96
2023-02-12T21:35:10.475Z,65.18
2023-02-12T21:37:38.204Z,65.02
2023-02-12T21:40:07.602Z,64.49
2023-02-12T21:42:35.370Z,65.27
2023-02-12T21:45:03.068Z,65.11
2023-02-12T21:47:31.088Z,64.99
2023-02-12T21:49:58.771Z,64.91
2023-02-12T21:52:27.857Z,64.63
2023-02-12T21:54:57.075Z,64.98
2023-02-12T21:57:24.871Z,65.20
2023-02-12T21:59:52.588Z,64.93
2023-02-12T22:02:20.367Z,65.01
2023-02-12T22:04:49.150Z,64.67
2023-02-12T22:07:16.923Z,65.03
2023-02-12T22:09:46.000Z,64.74
2023-02-12T22:12:13.815Z,64.76
2023-02-12T22:14:41.553Z,64.88
2023-02-12T22:17:09.304Z,64.46
2023-02-12T22:19:37.009Z,64.91
2023-02-12T22:22:04.764Z,64.51
2023-02-12T22:24:32.516Z,65.22
2023-02-12T22:27:01.543Z,65.28
2023-02-12T22:29:29.279Z,65.11
2023-02-12T22:31:57.101Z,64.65
2023-02-12T22:34:24.892Z,64.83
2023-02-12T22:36:52.589Z,64.54
2023-02-12T22:39:21.307Z,65.41
2023-02-12T22:41:49.296Z,64.68
2023-02-12T22:44:21.124Z,64.62
2023-02-12T22:46:49.816Z,65.11
2023-02-12T22:49:17.532Z,64.78
2023-02-12T22:51:45.461Z,64.70
2023-02-12T22:54:15.103Z,65.19
2023-02-12T22:56:43.653Z,64.85
2023-02-12T22:59:12.638Z,65.05
2023-02-12T23:01:41.936Z,65.36
2023-02-12T23:04:15.295Z,64.73
2023-02-12T23:06:43.687Z,64.92
2023-02-12T23:09:14.036Z,65.10
2023-02-12T23:11:41.917Z,65.66
2023-02-12T23:14:09.703Z,65.03
2023-02-12T23:16:37.599Z,65.06
2023-02-12T23:19:06.817Z,65.34
2023-02-12T23:21:34.916Z,64.76
2023-02-12T23:24:02.652Z,65.16
2023-02-12T23:26:30.744Z,65.14
2023-02-12T23:28:59.146Z,65.49
2023-02-12T23:31:27.117Z,65.10
2023-02-12T23:33:54.910Z,64.97
2023-02-12T23:36:23.981Z,65.24
2023-02-12T23:38:51.696Z,65.05
2023-02-12T23:41:19.426Z,65.69
2023-02-12T23:43:47.157Z,64.85
2023-02-12T23:46:14.992Z,65.58
2023-02-12T23:48:44.481Z,65.06
2023-02-12T23:51:12.302Z,65.41
2023-02-12T23:53:41.438Z,65.70
2023-02-12T23:56:09.142Z,65.54
2023-02-12T23:58:36.913Z,65.70
